Terminal Aerodrome Forecast
Issued by NWS

Home | Current Version | Previous Version | Text Only | Print | Product List | Glossary On
Versions: 1 2 3 4 5 6 7 8 9 10 11 12 13
000
FTUS45 KABQ 271100
TAFSAF
TAF
KSAF 271122Z 2712/2812 01011KT P6SM SKC
      TEMPO 2713/2717 36013G20KT
     FM272000 28008KT P6SM SCT250
     FM280400 36010KT P6SM BKN250=

USA.gov is the U.S. government's official web portal to all federal, state and local government web resources and services.